sensor_id;sensor_type;location;lat;lon;timestamp;pressure;altitude;pressure_sealevel;temperature;humidity
43119;BME280;28729;49.838;8.650;2022-07-29T00:02:48;99577.34;;;21.48;45.08
43119;BME280;28729;49.838;8.650;2022-07-29T00:06:51;99576.94;;;21.32;45.29
43119;BME280;28729;49.838;8.650;2022-07-29T00:10:52;99583.38;;;21.24;45.90
43119;BME280;28729;49.838;8.650;2022-07-29T00:14:55;99587.63;;;21.13;45.85
43119;BME280;28729;49.838;8.650;2022-07-29T00:18:57;99585.28;;;20.98;46.29
43119;BME280;28729;49.838;8.650;2022-07-29T00:23:02;99584.56;;;20.83;46.93
43119;BME280;28729;49.838;8.650;2022-07-29T00:27:04;99577.78;;;20.76;47.32
43119;BME280;28729;49.838;8.650;2022-07-29T00:31:06;99579.22;;;20.64;48.22
43119;BME280;28729;49.838;8.650;2022-07-29T00:35:09;99579.03;;;20.61;47.92
43119;BME280;28729;49.838;8.650;2022-07-29T00:39:29;99575.59;;;20.64;47.18
43119;BME280;28729;49.838;8.650;2022-07-29T00:43:31;99577.75;;;20.67;47.40
43119;BME280;28729;49.838;8.650;2022-07-29T00:47:33;99590.91;;;20.66;48.10
43119;BME280;28729;49.838;8.650;2022-07-29T00:51:36;99574.72;;;20.55;48.65
43119;BME280;28729;49.838;8.650;2022-07-29T00:55:38;99574.34;;;20.47;48.38
43119;BME280;28729;49.838;8.650;2022-07-29T00:59:40;99577.59;;;20.41;48.05
43119;BME280;28729;49.838;8.650;2022-07-29T01:03:41;99566.72;;;20.39;47.38
43119;BME280;28729;49.838;8.650;2022-07-29T01:07:43;99554.56;;;20.44;47.25
43119;BME280;28729;49.838;8.650;2022-07-29T01:11:47;99564.91;;;20.43;46.61
43119;BME280;28729;49.838;8.650;2022-07-29T01:15:52;99548.75;;;20.40;46.93
43119;BME280;28729;49.838;8.650;2022-07-29T01:20:02;99561.75;;;20.36;46.77
43119;BME280;28729;49.838;8.650;2022-07-29T01:24:11;99558.44;;;20.34;46.63
43119;BME280;28729;49.838;8.650;2022-07-29T01:28:39;99545.75;;;20.28;46.83
43119;BME280;28729;49.838;8.650;2022-07-29T01:32:50;99545.25;;;20.26;46.56
43119;BME280;28729;49.838;8.650;2022-07-29T01:41:19;99542.47;;;20.26;46.27
43119;BME280;28729;49.838;8.650;2022-07-29T01:45:30;99535.47;;;20.15;47.37
43119;BME280;28729;49.838;8.650;2022-07-29T01:49:36;99519.47;;;20.07;47.01
43119;BME280;28729;49.838;8.650;2022-07-29T01:53:50;99526.53;;;20.04;46.87
43119;BME280;28729;49.838;8.650;2022-07-29T01:57:57;99532.28;;;19.99;46.95
43119;BME280;28729;49.838;8.650;2022-07-29T02:02:00;99534.22;;;19.98;47.03
43119;BME280;28729;49.838;8.650;2022-07-29T02:06:04;99526.81;;;19.94;46.80
43119;BME280;28729;49.838;8.650;2022-07-29T02:10:09;99530.41;;;19.94;47.13
43119;BME280;28729;49.838;8.650;2022-07-29T02:14:12;99528.97;;;19.97;47.35
43119;BME280;28729;49.838;8.650;2022-07-29T02:18:17;99525.66;;;19.95;47.37
43119;BME280;28729;49.838;8.650;2022-07-29T02:22:20;99525.34;;;19.96;47.06
43119;BME280;28729;49.838;8.650;2022-07-29T02:26:24;99529.47;;;19.99;46.86
43119;BME280;28729;49.838;8.650;2022-07-29T02:30:28;99531.41;;;19.98;46.40
43119;BME280;28729;49.838;8.650;2022-07-29T02:34:33;99529.25;;;19.95;46.28
43119;BME280;28729;49.838;8.650;2022-07-29T02:38:36;99533.84;;;19.91;46.35
43119;BME280;28729;49.838;8.650;2022-07-29T02:42:54;99521.03;;;19.90;45.72
43119;BME280;28729;49.838;8.650;2022-07-29T02:47:28;99526.81;;;19.94;45.65
43119;BME280;28729;49.838;8.650;2022-07-29T02:51:49;99517.38;;;19.90;45.70
43119;BME280;28729;49.838;8.650;2022-07-29T02:55:57;99518.34;;;19.85;45.82
43119;BME280;28729;49.838;8.650;2022-07-29T03:00:06;99523.56;;;19.78;45.94
43119;BME280;28729;49.838;8.650;2022-07-29T03:04:09;99520.56;;;19.74;45.95
43119;BME280;28729;49.838;8.650;2022-07-29T03:08:14;99525.78;;;19.67;46.05
43119;BME280;28729;49.838;8.650;2022-07-29T03:12:17;99523.31;;;19.66;45.99
43119;BME280;28729;49.838;8.650;2022-07-29T03:16:19;99521.75;;;19.59;46.20
43119;BME280;28729;49.838;8.650;2022-07-29T03:20:22;99514.78;;;19.48;46.49
43119;BME280;28729;49.838;8.650;2022-07-29T03:24:27;99516.53;;;19.44;46.33
43119;BME280;28729;49.838;8.650;2022-07-29T03:28:31;99502.00;;;19.33;46.69
43119;BME280;28729;49.838;8.650;2022-07-29T03:32:33;99505.09;;;19.32;46.89
43119;BME280;28729;49.838;8.650;2022-07-29T03:36:35;99503.38;;;19.22;47.24
43119;BME280;28729;49.838;8.650;2022-07-29T03:40:46;99500.56;;;19.22;47.18
43119;BME280;28729;49.838;8.650;2022-07-29T03:44:51;99497.91;;;19.17;47.09
43119;BME280;28729;49.838;8.650;2022-07-29T03:48:58;99504.09;;;19.14;47.18
43119;BME280;28729;49.838;8.650;2022-07-29T03:53:02;99502.13;;;19.15;47.14
43119;BME280;28729;49.838;8.650;2022-07-29T03:57:05;99508.75;;;19.19;46.82
43119;BME280;28729;49.838;8.650;2022-07-29T04:01:07;99498.41;;;19.19;47.01
43119;BME280;28729;49.838;8.650;2022-07-29T04:05:12;99493.66;;;19.20;47.18
43119;BME280;28729;49.838;8.650;2022-07-29T04:09:14;99500.88;;;19.21;46.91
43119;BME280;28729;49.838;8.650;2022-07-29T04:13:19;99510.41;;;19.20;46.91
43119;BME280;28729;49.838;8.650;2022-07-29T04:17:22;99511.22;;;19.20;46.81
43119;BME280;28729;49.838;8.650;2022-07-29T04:21:24;99508.63;;;19.24;46.90
43119;BME280;28729;49.838;8.650;2022-07-29T04:25:26;99507.16;;;19.26;46.86
43119;BME280;28729;49.838;8.650;2022-07-29T04:29:27;99511.31;;;19.29;46.72
43119;BME280;28729;49.838;8.650;2022-07-29T04:33:29;99517.41;;;19.31;46.64
43119;BME280;28729;49.838;8.650;2022-07-29T04:37:31;99509.03;;;19.31;46.68
43119;BME280;28729;49.838;8.650;2022-07-29T04:41:33;99509.84;;;19.31;46.26
43119;BME280;28729;49.838;8.650;2022-07-29T04:45:35;99512.66;;;19.31;46.31
43119;BME280;28729;49.838;8.650;2022-07-29T04:49:38;99513.66;;;19.35;46.25
43119;BME280;28729;49.838;8.650;2022-07-29T04:53:39;99518.63;;;19.39;46.71
43119;BME280;28729;49.838;8.650;2022-07-29T04:57:41;99514.38;;;19.41;46.11
43119;BME280;28729;49.838;8.650;2022-07-29T05:01:43;99520.47;;;19.43;46.66
43119;BME280;28729;49.838;8.650;2022-07-29T05:05:44;99514.25;;;19.46;46.38
43119;BME280;28729;49.838;8.650;2022-07-29T05:09:46;99516.09;;;19.51;46.52
43119;BME280;28729;49.838;8.650;2022-07-29T05:13:48;99522.06;;;19.58;46.70
43119;BME280;28729;49.838;8.650;2022-07-29T05:17:50;99520.72;;;19.55;46.96
43119;BME280;28729;49.838;8.650;2022-07-29T05:21:51;99514.41;;;19.64;46.52
43119;BME280;28729;49.838;8.650;2022-07-29T05:25:53;99518.22;;;19.68;47.01
43119;BME280;28729;49.838;8.650;2022-07-29T05:29:54;99515.63;;;19.71;47.08
43119;BME280;28729;49.838;8.650;2022-07-29T05:33:56;99522.72;;;19.77;46.80
43119;BME280;28729;49.838;8.650;2022-07-29T05:37:58;99516.56;;;19.89;46.78
43119;BME280;28729;49.838;8.650;2022-07-29T05:41:59;99520.88;;;19.95;47.09
43119;BME280;28729;49.838;8.650;2022-07-29T05:46:01;99530.59;;;19.98;46.70
43119;BME280;28729;49.838;8.650;2022-07-29T05:50:03;99533.09;;;19.99;46.27
43119;BME280;28729;49.838;8.650;2022-07-29T05:54:05;99529.06;;;20.14;46.06
43119;BME280;28729;49.838;8.650;2022-07-29T05:58:07;99535.53;;;20.23;46.28
43119;BME280;28729;49.838;8.650;2022-07-29T06:02:09;99535.41;;;20.29;45.87
43119;BME280;28729;49.838;8.650;2022-07-29T06:06:10;99540.53;;;20.35;45.85
43119;BME280;28729;49.838;8.650;2022-07-29T06:10:12;99544.53;;;20.52;45.71
43119;BME280;28729;49.838;8.650;2022-07-29T06:14:14;99542.00;;;20.64;45.92
43119;BME280;28729;49.838;8.650;2022-07-29T06:18:17;99539.59;;;20.80;45.75
43119;BME280;28729;49.838;8.650;2022-07-29T06:22:18;99547.53;;;20.95;45.74
43119;BME280;28729;49.838;8.650;2022-07-29T06:26:24;99547.25;;;21.14;44.82
43119;BME280;28729;49.838;8.650;2022-07-29T06:30:32;99545.28;;;21.32;44.72
43119;BME280;28729;49.838;8.650;2022-07-29T06:34:35;99540.72;;;21.53;44.28
43119;BME280;28729;49.838;8.650;2022-07-29T06:38:37;99538.72;;;21.71;43.62
43119;BME280;28729;49.838;8.650;2022-07-29T06:42:45;99545.50;;;21.96;43.30
43119;BME280;28729;49.838;8.650;2022-07-29T06:46:47;99544.97;;;22.20;43.17
43119;BME280;28729;49.838;8.650;2022-07-29T06:50:51;99544.28;;;22.32;42.87
43119;BME280;28729;49.838;8.650;2022-07-29T06:54:52;99549.38;;;22.39;42.46
43119;BME280;28729;49.838;8.650;2022-07-29T06:58:56;99551.38;;;22.38;42.33
43119;BME280;28729;49.838;8.650;2022-07-29T07:02:57;99555.13;;;22.42;42.20
43119;BME280;28729;49.838;8.650;2022-07-29T07:06:59;99562.38;;;22.61;42.37
43119;BME280;28729;49.838;8.650;2022-07-29T07:11:01;99561.84;;;22.67;41.99
43119;BME280;28729;49.838;8.650;2022-07-29T07:15:03;99579.31;;;22.73;41.84
43119;BME280;28729;49.838;8.650;2022-07-29T07:19:05;99579.22;;;22.99;41.95
43119;BME280;28729;49.838;8.650;2022-07-29T07:23:06;99579.06;;;23.25;41.61
43119;BME280;28729;49.838;8.650;2022-07-29T07:27:08;99577.72;;;23.52;41.73
43119;BME280;28729;49.838;8.650;2022-07-29T07:31:11;99579.34;;;23.83;41.51
43119;BME280;28729;49.838;8.650;2022-07-29T07:35:13;99586.03;;;24.11;41.43
43119;BME280;28729;49.838;8.650;2022-07-29T07:39:15;99588.03;;;24.44;41.10
43119;BME280;28729;49.838;8.650;2022-07-29T07:43:18;99582.13;;;24.83;41.50
43119;BME280;28729;49.838;8.650;2022-07-29T07:47:21;99581.06;;;24.99;41.39
43119;BME280;28729;49.838;8.650;2022-07-29T07:51:28;99581.22;;;25.15;41.30
43119;BME280;28729;49.838;8.650;2022-07-29T07:55:30;99576.13;;;25.45;41.34
43119;BME280;28729;49.838;8.650;2022-07-29T07:59:52;99579.00;;;25.74;41.23
43119;BME280;28729;49.838;8.650;2022-07-29T08:03:54;99574.63;;;25.88;40.76
43119;BME280;28729;49.838;8.650;2022-07-29T08:07:56;99565.91;;;25.81;40.90
43119;BME280;28729;49.838;8.650;2022-07-29T08:11:58;99574.34;;;25.94;40.83
43119;BME280;28729;49.838;8.650;2022-07-29T08:16:00;99571.53;;;26.22;40.14
43119;BME280;28729;49.838;8.650;2022-07-29T08:20:05;99567.53;;;26.51;40.19
43119;BME280;28729;49.838;8.650;2022-07-29T08:24:09;99575.63;;;26.52;40.69
43119;BME280;28729;49.838;8.650;2022-07-29T08:28:30;99571.91;;;26.80;40.09
43119;BME280;28729;49.838;8.650;2022-07-29T08:32:32;99572.47;;;27.17;40.06
43119;BME280;28729;49.838;8.650;2022-07-29T08:36:54;99581.38;;;27.70;39.99
43119;BME280;28729;49.838;8.650;2022-07-29T08:40:58;99582.66;;;27.92;40.05
43119;BME280;28729;49.838;8.650;2022-07-29T08:44:59;99572.25;;;27.61;40.26
43119;BME280;28729;49.838;8.650;2022-07-29T08:49:01;99585.97;;;27.59;40.75
43119;BME280;28729;49.838;8.650;2022-07-29T08:53:03;99581.03;;;27.56;40.43
43119;BME280;28729;49.838;8.650;2022-07-29T08:57:06;99581.19;;;27.63;39.52
43119;BME280;28729;49.838;8.650;2022-07-29T09:01:11;99582.16;;;28.06;39.43
43119;BME280;28729;49.838;8.650;2022-07-29T09:05:15;99582.59;;;28.08;38.90
43119;BME280;28729;49.838;8.650;2022-07-29T09:09:17;99581.28;;;28.02;39.38
43119;BME280;28729;49.838;8.650;2022-07-29T09:13:19;99578.56;;;28.09;39.95
43119;BME280;28729;49.838;8.650;2022-07-29T09:17:45;99579.31;;;28.45;39.15
43119;BME280;28729;49.838;8.650;2022-07-29T09:21:59;99572.16;;;28.32;39.59
43119;BME280;28729;49.838;8.650;2022-07-29T09:26:07;99577.22;;;28.42;39.92
43119;BME280;28729;49.838;8.650;2022-07-29T09:30:13;99574.00;;;28.44;39.75
43119;BME280;28729;49.838;8.650;2022-07-29T09:34:28;99574.09;;;28.47;39.69
43119;BME280;28729;49.838;8.650;2022-07-29T09:38:32;99572.69;;;28.60;39.91
43119;BME280;28729;49.838;8.650;2022-07-29T09:42:34;99571.56;;;28.88;39.11
43119;BME280;28729;49.838;8.650;2022-07-29T09:46:35;99560.16;;;29.07;38.72
43119;BME280;28729;49.838;8.650;2022-07-29T09:50:41;99568.50;;;29.23;38.25
43119;BME280;28729;49.838;8.650;2022-07-29T09:54:43;99569.91;;;29.33;38.22
43119;BME280;28729;49.838;8.650;2022-07-29T09:58:46;99568.50;;;29.50;38.21
43119;BME280;28729;49.838;8.650;2022-07-29T10:02:48;99574.03;;;29.66;37.93
43119;BME280;28729;49.838;8.650;2022-07-29T10:07:01;99561.97;;;29.46;37.98
43119;BME280;28729;49.838;8.650;2022-07-29T10:11:14;99558.31;;;29.72;37.92
43119;BME280;28729;49.838;8.650;2022-07-29T10:15:16;99564.78;;;30.03;37.94
43119;BME280;28729;49.838;8.650;2022-07-29T10:19:17;99565.25;;;30.08;37.11
43119;BME280;28729;49.838;8.650;2022-07-29T10:23:20;99552.06;;;30.23;37.06
43119;BME280;28729;49.838;8.650;2022-07-29T10:27:21;99550.19;;;30.38;36.47
43119;BME280;28729;49.838;8.650;2022-07-29T10:31:29;99554.69;;;30.83;36.28
43119;BME280;28729;49.838;8.650;2022-07-29T10:39:59;99557.38;;;30.69;36.25
43119;BME280;28729;49.838;8.650;2022-07-29T10:44:25;99554.00;;;30.94;35.99
43119;BME280;28729;49.838;8.650;2022-07-29T10:48:27;99549.13;;;30.94;35.74
43119;BME280;28729;49.838;8.650;2022-07-29T10:56:51;99548.84;;;30.69;35.94
43119;BME280;28729;49.838;8.650;2022-07-29T11:00:54;99534.59;;;31.10;35.78
43119;BME280;28729;49.838;8.650;2022-07-29T11:04:59;99526.16;;;31.24;35.31
43119;BME280;28729;49.838;8.650;2022-07-29T11:09:19;99518.28;;;31.69;34.62
43119;BME280;28729;49.838;8.650;2022-07-29T11:21:54;99523.88;;;32.53;33.37
43119;BME280;28729;49.838;8.650;2022-07-29T11:30:50;99527.97;;;32.95;32.05
43119;BME280;28729;49.838;8.650;2022-07-29T11:39:25;99515.75;;;33.02;31.73
43119;BME280;28729;49.838;8.650;2022-07-29T11:43:51;99522.63;;;32.40;31.96
43119;BME280;28729;49.838;8.650;2022-07-29T11:47:56;99517.28;;;32.10;33.18
43119;BME280;28729;49.838;8.650;2022-07-29T11:52:06;99512.88;;;32.55;33.17
43119;BME280;28729;49.838;8.650;2022-07-29T11:56:12;99509.16;;;33.58;32.08
43119;BME280;28729;49.838;8.650;2022-07-29T12:04:25;99504.75;;;34.28;30.82
43119;BME280;28729;49.838;8.650;2022-07-29T12:08:28;99496.81;;;34.49;30.48
43119;BME280;28729;49.838;8.650;2022-07-29T12:12:30;99501.06;;;34.83;29.77
43119;BME280;28729;49.838;8.650;2022-07-29T12:16:36;99488.25;;;35.39;29.14
43119;BME280;28729;49.838;8.650;2022-07-29T12:20:38;99491.69;;;35.96;28.00
43119;BME280;28729;49.838;8.650;2022-07-29T12:24:44;99482.66;;;36.28;27.21
43119;BME280;28729;49.838;8.650;2022-07-29T12:28:51;99485.09;;;36.57;26.92
43119;BME280;28729;49.838;8.650;2022-07-29T12:32:55;99481.44;;;37.03;26.13
43119;BME280;28729;49.838;8.650;2022-07-29T12:36:57;99488.25;;;37.56;25.24
43119;BME280;28729;49.838;8.650;2022-07-29T12:40:59;99478.75;;;38.16;24.89
43119;BME280;28729;49.838;8.650;2022-07-29T12:45:01;99464.25;;;38.72;23.47
43119;BME280;28729;49.838;8.650;2022-07-29T12:49:03;99457.25;;;39.35;23.65
43119;BME280;28729;49.838;8.650;2022-07-29T12:53:11;99455.19;;;39.35;23.04
43119;BME280;28729;49.838;8.650;2022-07-29T12:57:12;99452.88;;;39.30;23.11
43119;BME280;28729;49.838;8.650;2022-07-29T13:01:21;99455.97;;;39.65;22.55
43119;BME280;28729;49.838;8.650;2022-07-29T13:05:22;99451.44;;;39.80;22.16
43119;BME280;28729;49.838;8.650;2022-07-29T13:09:39;99450.34;;;40.67;21.58
43119;BME280;28729;49.838;8.650;2022-07-29T13:13:50;99446.25;;;40.77;20.62
43119;BME280;28729;49.838;8.650;2022-07-29T13:18:30;99454.47;;;41.14;20.57
43119;BME280;28729;49.838;8.650;2022-07-29T13:22:32;99446.16;;;41.38;20.60
43119;BME280;28729;49.838;8.650;2022-07-29T13:26:34;99452.84;;;40.01;20.93
43119;BME280;28729;49.838;8.650;2022-07-29T13:30:36;99453.72;;;38.82;22.82
43119;BME280;28729;49.838;8.650;2022-07-29T13:34:45;99452.75;;;38.03;23.76
43119;BME280;28729;49.838;8.650;2022-07-29T13:38:46;99446.66;;;38.53;23.39
43119;BME280;28729;49.838;8.650;2022-07-29T13:42:48;99451.66;;;39.15;22.77
43119;BME280;28729;49.838;8.650;2022-07-29T13:46:50;99443.81;;;38.17;22.69
43119;BME280;28729;49.838;8.650;2022-07-29T13:50:52;99450.53;;;37.11;22.91
43119;BME280;28729;49.838;8.650;2022-07-29T13:54:54;99458.88;;;36.00;23.96
43119;BME280;28729;49.838;8.650;2022-07-29T13:58:55;99447.06;;;35.30;24.96
43119;BME280;28729;49.838;8.650;2022-07-29T14:02:58;99444.84;;;34.62;25.58
43119;BME280;28729;49.838;8.650;2022-07-29T14:07:00;99453.53;;;33.81;26.44
43119;BME280;28729;49.838;8.650;2022-07-29T14:11:04;99460.28;;;32.92;27.71
43119;BME280;28729;49.838;8.650;2022-07-29T14:15:06;99458.25;;;32.35;28.39
43119;BME280;28729;49.838;8.650;2022-07-29T14:19:07;99456.50;;;31.84;28.71
43119;BME280;28729;49.838;8.650;2022-07-29T14:23:09;99456.50;;;31.77;28.90
43119;BME280;28729;49.838;8.650;2022-07-29T14:27:13;99456.72;;;31.40;29.78
43119;BME280;28729;49.838;8.650;2022-07-29T14:31:15;99463.44;;;31.10;30.76
43119;BME280;28729;49.838;8.650;2022-07-29T14:35:17;99467.25;;;30.77;31.85
43119;BME280;28729;49.838;8.650;2022-07-29T14:39:19;99473.13;;;30.50;31.65
43119;BME280;28729;49.838;8.650;2022-07-29T14:43:21;99475.94;;;30.43;31.72
43119;BME280;28729;49.838;8.650;2022-07-29T14:47:23;99466.56;;;30.42;32.19
43119;BME280;28729;49.838;8.650;2022-07-29T14:51:25;99470.28;;;30.50;32.85
43119;BME280;28729;49.838;8.650;2022-07-29T14:55:32;99469.94;;;30.55;32.70
43119;BME280;28729;49.838;8.650;2022-07-29T14:59:34;99461.03;;;30.60;32.40
43119;BME280;28729;49.838;8.650;2022-07-29T15:03:37;99460.91;;;30.94;32.68
43119;BME280;28729;49.838;8.650;2022-07-29T15:07:39;99465.16;;;31.25;32.00
43119;BME280;28729;49.838;8.650;2022-07-29T15:11:41;99457.50;;;31.33;31.96
43119;BME280;28729;49.838;8.650;2022-07-29T15:15:43;99460.97;;;31.82;31.05
43119;BME280;28729;49.838;8.650;2022-07-29T15:19:47;99462.34;;;32.63;30.08
43119;BME280;28729;49.838;8.650;2022-07-29T15:23:49;99462.69;;;33.33;29.08
43119;BME280;28729;49.838;8.650;2022-07-29T15:27:50;99465.03;;;33.67;28.18
43119;BME280;28729;49.838;8.650;2022-07-29T15:31:55;99460.13;;;33.64;27.65
43119;BME280;28729;49.838;8.650;2022-07-29T15:35:58;99474.91;;;33.44;27.93
43119;BME280;28729;49.838;8.650;2022-07-29T15:40:00;99480.69;;;33.23;27.93
43119;BME280;28729;49.838;8.650;2022-07-29T15:44:01;99479.47;;;33.09;28.22
43119;BME280;28729;49.838;8.650;2022-07-29T15:48:05;99482.31;;;32.81;28.33
43119;BME280;28729;49.838;8.650;2022-07-29T15:52:09;99483.94;;;32.75;29.13
43119;BME280;28729;49.838;8.650;2022-07-29T15:56:12;99473.38;;;32.57;29.91
43119;BME280;28729;49.838;8.650;2022-07-29T16:00:14;99468.06;;;32.52;29.56
43119;BME280;28729;49.838;8.650;2022-07-29T16:04:18;99452.94;;;32.30;29.91
43119;BME280;28729;49.838;8.650;2022-07-29T16:08:20;99460.66;;;32.08;30.68
43119;BME280;28729;49.838;8.650;2022-07-29T16:12:22;99468.34;;;31.97;30.72
43119;BME280;28729;49.838;8.650;2022-07-29T16:16:23;99474.38;;;31.74;30.71
43119;BME280;28729;49.838;8.650;2022-07-29T16:20:25;99470.19;;;31.50;30.47
43119;BME280;28729;49.838;8.650;2022-07-29T16:24:27;99496.00;;;31.16;31.71
43119;BME280;28729;49.838;8.650;2022-07-29T16:28:30;99509.13;;;30.76;33.61
43119;BME280;28729;49.838;8.650;2022-07-29T16:32:32;99507.81;;;29.92;35.03
43119;BME280;28729;49.838;8.650;2022-07-29T16:36:33;99507.28;;;29.22;36.66
43119;BME280;28729;49.838;8.650;2022-07-29T16:40:35;99500.19;;;28.82;37.43
43119;BME280;28729;49.838;8.650;2022-07-29T16:44:37;99515.28;;;28.67;37.34
43119;BME280;28729;49.838;8.650;2022-07-29T16:48:39;99510.53;;;28.29;38.73
43119;BME280;28729;49.838;8.650;2022-07-29T16:52:41;99520.53;;;28.00;39.11
43119;BME280;28729;49.838;8.650;2022-07-29T16:56:43;99512.53;;;27.66;39.53
43119;BME280;28729;49.838;8.650;2022-07-29T17:00:45;99522.06;;;27.58;39.75
43119;BME280;28729;49.838;8.650;2022-07-29T17:04:46;99517.72;;;27.45;39.97
43119;BME280;28729;49.838;8.650;2022-07-29T17:08:48;99523.06;;;27.31;40.02
43119;BME280;28729;49.838;8.650;2022-07-29T17:12:50;99535.13;;;27.12;40.64
43119;BME280;28729;49.838;8.650;2022-07-29T17:16:54;99537.06;;;26.92;40.14
43119;BME280;28729;49.838;8.650;2022-07-29T17:21:02;99548.59;;;26.83;40.04
43119;BME280;28729;49.838;8.650;2022-07-29T17:25:04;99547.41;;;26.68;39.76
43119;BME280;28729;49.838;8.650;2022-07-29T17:29:06;99550.34;;;26.44;40.51
43119;BME280;28729;49.838;8.650;2022-07-29T17:33:08;99543.94;;;26.31;41.03
43119;BME280;28729;49.838;8.650;2022-07-29T17:37:10;99544.28;;;26.13;41.53
43119;BME280;28729;49.838;8.650;2022-07-29T17:41:12;99539.97;;;26.04;42.00
43119;BME280;28729;49.838;8.650;2022-07-29T17:45:14;99534.50;;;25.95;42.57
43119;BME280;28729;49.838;8.650;2022-07-29T17:49:15;99531.63;;;25.67;44.28
43119;BME280;28729;49.838;8.650;2022-07-29T17:53:17;99551.66;;;25.62;43.47
43119;BME280;28729;49.838;8.650;2022-07-29T17:57:19;99561.19;;;25.45;43.60
43119;BME280;28729;49.838;8.650;2022-07-29T18:01:21;99577.78;;;25.34;43.81
43119;BME280;28729;49.838;8.650;2022-07-29T18:05:23;99588.50;;;25.29;44.24
43119;BME280;28729;49.838;8.650;2022-07-29T18:09:25;99599.41;;;25.18;44.62
43119;BME280;28729;49.838;8.650;2022-07-29T18:13:27;99602.66;;;24.95;45.50
43119;BME280;28729;49.838;8.650;2022-07-29T18:17:29;99602.22;;;24.81;46.16
43119;BME280;28729;49.838;8.650;2022-07-29T18:21:50;99610.13;;;24.54;48.07
43119;BME280;28729;49.838;8.650;2022-07-29T18:25:57;99622.09;;;24.51;47.60
43119;BME280;28729;49.838;8.650;2022-07-29T18:29:58;99622.38;;;24.38;48.28
43119;BME280;28729;49.838;8.650;2022-07-29T18:34:05;99626.22;;;24.33;47.83
43119;BME280;28729;49.838;8.650;2022-07-29T18:38:06;99630.28;;;24.23;48.61
43119;BME280;28729;49.838;8.650;2022-07-29T18:42:08;99638.47;;;24.16;48.52
43119;BME280;28729;49.838;8.650;2022-07-29T18:46:10;99629.63;;;24.05;48.92
43119;BME280;28729;49.838;8.650;2022-07-29T18:50:15;99634.25;;;23.89;50.80
43119;BME280;28729;49.838;8.650;2022-07-29T18:54:17;99646.38;;;23.81;50.92
43119;BME280;28729;49.838;8.650;2022-07-29T19:02:38;99659.72;;;23.63;51.76
43119;BME280;28729;49.838;8.650;2022-07-29T19:06:43;99673.00;;;23.54;53.07
43119;BME280;28729;49.838;8.650;2022-07-29T19:10:44;99670.38;;;23.49;53.48
43119;BME280;28729;49.838;8.650;2022-07-29T19:14:46;99651.28;;;23.33;54.75
43119;BME280;28729;49.838;8.650;2022-07-29T19:18:50;99653.34;;;23.24;54.51
43119;BME280;28729;49.838;8.650;2022-07-29T19:22:52;99649.09;;;23.09;55.98
43119;BME280;28729;49.838;8.650;2022-07-29T19:26:54;99645.00;;;22.98;56.38
43119;BME280;28729;49.838;8.650;2022-07-29T19:30:57;99642.72;;;22.83;58.63
43119;BME280;28729;49.838;8.650;2022-07-29T19:34:59;99642.44;;;22.75;57.68
43119;BME280;28729;49.838;8.650;2022-07-29T19:39:19;99651.22;;;22.57;60.03
43119;BME280;28729;49.838;8.650;2022-07-29T19:43:36;99657.00;;;22.51;59.04
43119;BME280;28729;49.838;8.650;2022-07-29T19:47:55;99667.13;;;22.44;58.74
43119;BME280;28729;49.838;8.650;2022-07-29T19:52:02;99672.06;;;22.38;59.01
43119;BME280;28729;49.838;8.650;2022-07-29T21:17:45;99756.50;;;21.05;66.64
43119;BME280;28729;49.838;8.650;2022-07-29T21:21:47;99759.94;;;21.02;67.30
43119;BME280;28729;49.838;8.650;2022-07-29T21:25:49;99760.06;;;20.97;68.34
43119;BME280;28729;49.838;8.650;2022-07-29T21:29:50;99756.41;;;20.87;70.32
43119;BME280;28729;49.838;8.650;2022-07-29T21:33:52;99764.91;;;20.74;72.21
43119;BME280;28729;49.838;8.650;2022-07-29T21:37:54;99780.59;;;20.61;72.33
43119;BME280;28729;49.838;8.650;2022-07-29T21:41:56;99783.63;;;20.51;73.32
43119;BME280;28729;49.838;8.650;2022-07-29T21:45:58;99779.03;;;20.32;75.69
43119;BME280;28729;49.838;8.650;2022-07-29T21:50:00;99784.97;;;20.17;77.83
43119;BME280;28729;49.838;8.650;2022-07-29T21:54:02;99786.84;;;20.08;76.36
43119;BME280;28729;49.838;8.650;2022-07-29T21:58:04;99781.28;;;19.80;85.10
43119;BME280;28729;49.838;8.650;2022-07-29T22:02:06;99781.38;;;19.75;84.89
43119;BME280;28729;49.838;8.650;2022-07-29T22:06:08;99780.47;;;19.79;82.36
43119;BME280;28729;49.838;8.650;2022-07-29T22:10:19;99783.06;;;19.76;83.19
43119;BME280;28729;49.838;8.650;2022-07-29T22:14:20;99776.75;;;19.70;84.15
43119;BME280;28729;49.838;8.650;2022-07-29T22:18:22;99776.94;;;19.74;82.58
43119;BME280;28729;49.838;8.650;2022-07-29T22:22:24;99788.31;;;19.77;82.67
43119;BME280;28729;49.838;8.650;2022-07-29T22:26:25;99774.44;;;19.86;83.17
43119;BME280;28729;49.838;8.650;2022-07-29T22:30:27;99777.25;;;19.86;81.92
43119;BME280;28729;49.838;8.650;2022-07-29T22:34:29;99778.91;;;19.87;82.39
43119;BME280;28729;49.838;8.650;2022-07-29T22:38:38;99780.22;;;19.90;82.28
43119;BME280;28729;49.838;8.650;2022-07-29T22:42:42;99778.06;;;19.87;84.57
43119;BME280;28729;49.838;8.650;2022-07-29T22:46:44;99786.69;;;19.90;83.65
43119;BME280;28729;49.838;8.650;2022-07-29T22:50:45;99784.19;;;19.89;84.14
43119;BME280;28729;49.838;8.650;2022-07-29T22:54:47;99775.16;;;19.92;83.70
43119;BME280;28729;49.838;8.650;2022-07-29T22:58:49;99778.78;;;19.92;83.35
43119;BME280;28729;49.838;8.650;2022-07-29T23:02:51;99782.72;;;19.91;82.83
43119;BME280;28729;49.838;8.650;2022-07-29T23:06:52;99781.72;;;19.87;83.03
43119;BME280;28729;49.838;8.650;2022-07-29T23:10:54;99786.25;;;19.83;83.40
43119;BME280;28729;49.838;8.650;2022-07-29T23:14:55;99786.88;;;19.80;82.72
43119;BME280;28729;49.838;8.650;2022-07-29T23:18:57;99789.38;;;19.68;82.99
43119;BME280;28729;49.838;8.650;2022-07-29T23:22:59;99798.16;;;19.61;83.23
43119;BME280;28729;49.838;8.650;2022-07-29T23:27:00;99791.84;;;19.55;83.45
43119;BME280;28729;49.838;8.650;2022-07-29T23:31:03;99789.84;;;19.42;84.15
43119;BME280;28729;49.838;8.650;2022-07-29T23:35:05;99802.38;;;19.31;84.42